Terminal Aerodrome Forecast
Issued by NWS

Home | Current Version | Previous Version | Text Only | Print | Product List | Glossary On
Versions: 1 2 3 4 5 6 7 8 9 10 11 12 13 14 15
339
FTPA31 PHFO 162320
TAFHOG
TAF
PHOG 162320Z 1700/1724 21013G19KT P6SM VCSH SCT030 BKN050
     FM170500 18007KT P6SM VCSH SCT025 BKN050
     FM172000 19015KT P6SM FEW035 SCT050
      AMD LTD TO VIS AND WIND 1709/1716=

USA.gov is the U.S. government's official web portal to all federal, state and local government web resources and services.